createdAt,value
2017-09-15T00:00:54.436Z,1000.09
2017-09-15T00:01:54.388Z,1000.11
2017-09-15T00:02:54.348Z,1000.09
2017-09-15T00:03:54.322Z,1000.14
2017-09-15T00:04:54.283Z,1000.13
2017-09-15T00:05:54.263Z,1000.16
2017-09-15T00:06:54.221Z,1000.17
2017-09-15T00:07:54.175Z,1000.19
2017-09-15T00:08:54.145Z,1000.20
2017-09-15T00:09:54.103Z,1000.21
2017-09-15T00:10:54.072Z,1000.22
2017-09-15T00:11:54.031Z,1000.23
2017-09-15T00:12:53.999Z,1000.23
2017-09-15T00:13:53.959Z,1000.26
2017-09-15T00:14:53.922Z,1000.28
2017-09-15T00:15:53.888Z,1000.31
2017-09-15T00:16:53.861Z,1000.32
2017-09-15T00:17:53.817Z,1000.37
2017-09-15T00:18:53.780Z,1000.39
2017-09-15T00:19:53.743Z,1000.39
2017-09-15T00:20:53.727Z,1000.36
2017-09-15T00:21:53.688Z,1000.35
2017-09-15T00:22:53.638Z,1000.38
2017-09-15T00:23:53.608Z,1000.40
2017-09-15T00:24:53.573Z,1000.40
2017-09-15T00:25:53.531Z,1000.45
2017-09-15T00:26:53.494Z,1000.45
2017-09-15T00:27:53.459Z,1000.47
2017-09-15T00:28:53.431Z,1000.46
2017-09-15T00:29:53.395Z,1000.48
2017-09-15T00:30:53.354Z,1000.50
2017-09-15T00:31:53.319Z,1000.47
2017-09-15T00:32:53.290Z,1000.52
2017-09-15T00:33:53.245Z,1000.49
2017-09-15T00:34:53.208Z,1000.48
2017-09-15T00:35:53.179Z,1000.54
2017-09-15T00:36:53.136Z,1000.54
2017-09-15T00:37:53.103Z,1000.60
2017-09-15T00:38:53.076Z,1000.60
2017-09-15T00:39:53.060Z,1000.63
2017-09-15T00:40:52.994Z,1000.67
2017-09-15T00:41:52.962Z,1000.65
2017-09-15T00:42:52.930Z,1000.70
2017-09-15T00:43:52.907Z,1000.71
2017-09-15T00:44:52.862Z,1000.77
2017-09-15T00:45:52.815Z,1000.77
2017-09-15T00:46:52.802Z,1000.77
2017-09-15T00:47:52.761Z,1000.84
2017-09-15T00:48:52.715Z,1000.84
2017-09-15T00:49:52.690Z,1000.85
2017-09-15T00:50:52.648Z,1000.84
2017-09-15T00:51:52.632Z,1000.82
2017-09-15T00:52:52.565Z,1000.87
2017-09-15T00:53:52.570Z,1000.87
2017-09-15T00:54:52.504Z,1000.93
2017-09-15T00:55:52.474Z,1000.85
2017-09-15T00:56:52.446Z,1000.89
2017-09-15T00:57:52.406Z,1000.91
2017-09-15T00:58:52.373Z,1000.95
2017-09-15T00:59:52.346Z,1000.97
2017-09-15T01:00:52.283Z,1000.97
2017-09-15T01:01:52.250Z,1000.98
2017-09-15T01:02:52.214Z,1000.94
2017-09-15T01:03:52.178Z,1001.01
2017-09-15T01:04:52.158Z,1001.03
2017-09-15T01:05:52.128Z,1001.00
2017-09-15T01:06:52.068Z,1001.02
2017-09-15T01:07:52.040Z,1001.06
2017-09-15T01:08:52.005Z,1001.06
2017-09-15T01:09:51.958Z,1001.10
2017-09-15T01:10:51.948Z,1001.09
2017-09-15T01:11:51.893Z,1001.10
2017-09-15T01:12:51.857Z,1001.06
2017-09-15T01:13:51.823Z,1001.04
2017-09-15T01:14:51.791Z,1001.08
2017-09-15T01:15:51.765Z,1001.04
2017-09-15T01:16:51.740Z,1001.08
2017-09-15T01:17:51.696Z,1001.09
2017-09-15T01:18:51.652Z,1001.08
2017-09-15T01:19:51.639Z,1001.15
2017-09-15T01:20:51.569Z,1001.14
2017-09-15T01:21:51.531Z,1001.11
2017-09-15T01:22:51.504Z,1001.21
2017-09-15T01:23:51.487Z,1001.13
2017-09-15T01:24:51.437Z,1001.21
2017-09-15T01:25:52.242Z,1001.21
2017-09-15T01:26:51.365Z,1001.27
2017-09-15T01:27:51.327Z,1001.25
2017-09-15T01:28:51.293Z,1001.24
2017-09-15T01:29:51.250Z,1001.28
2017-09-15T01:30:51.212Z,1001.33
2017-09-15T01:31:51.176Z,1001.32
2017-09-15T01:32:51.141Z,1001.32
2017-09-15T01:33:51.107Z,1001.39
2017-09-15T01:34:51.073Z,1001.41
2017-09-15T01:35:51.043Z,1001.43
2017-09-15T01:36:51.002Z,1001.46
2017-09-15T01:37:50.968Z,1001.43
2017-09-15T01:38:50.933Z,1001.47
2017-09-15T01:39:50.894Z,1001.53
2017-09-15T01:40:50.857Z,1001.53
2017-09-15T01:41:50.822Z,1001.56
2017-09-15T01:42:50.784Z,1001.58
2017-09-15T01:43:50.749Z,1001.61
2017-09-15T01:44:50.714Z,1001.62
2017-09-15T01:45:50.677Z,1001.60
2017-09-15T01:46:50.641Z,1001.68
2017-09-15T01:47:50.605Z,1001.70
2017-09-15T01:48:50.569Z,1001.76
2017-09-15T01:49:50.534Z,1001.79
2017-09-15T01:50:50.497Z,1001.83
2017-09-15T01:51:50.461Z,1001.79
2017-09-15T01:52:50.426Z,1001.80
2017-09-15T01:53:50.395Z,1001.81
2017-09-15T01:54:50.353Z,1001.82
2017-09-15T01:55:50.320Z,1001.77
2017-09-15T01:56:50.286Z,1001.79
2017-09-15T01:57:50.248Z,1001.80
2017-09-15T01:58:50.211Z,1001.80
2017-09-15T01:59:50.176Z,1001.79
2017-09-15T02:00:50.149Z,1001.79
2017-09-15T02:01:50.107Z,1001.83
2017-09-15T02:02:50.069Z,1001.78
2017-09-15T02:03:50.034Z,1001.82
2017-09-15T02:04:50.002Z,1001.83
2017-09-15T02:05:49.964Z,1001.85
2017-09-15T02:06:49.926Z,1001.86
2017-09-15T02:07:49.894Z,1001.86
2017-09-15T02:08:49.857Z,1001.88
2017-09-15T02:09:49.819Z,1001.91
2017-09-15T02:10:49.786Z,1001.91
2017-09-15T02:11:49.750Z,1001.96
2017-09-15T02:12:49.712Z,1001.97
2017-09-15T02:13:49.680Z,1001.95
2017-09-15T02:14:49.639Z,1001.98
2017-09-15T02:15:49.606Z,1001.99
2017-09-15T02:16:49.570Z,1001.99
2017-09-15T02:17:49.542Z,1002.04
2017-09-15T02:18:49.502Z,1002.06
2017-09-15T02:19:49.463Z,1002.08
2017-09-15T02:20:49.428Z,1002.12
2017-09-15T02:21:49.396Z,1002.07
2017-09-15T02:22:49.358Z,1002.11
2017-09-15T02:23:49.323Z,1002.16
2017-09-15T02:24:49.285Z,1002.20
2017-09-15T02:25:49.249Z,1002.13
2017-09-15T02:26:49.217Z,1002.20
2017-09-15T02:27:49.181Z,1002.15
2017-09-15T02:28:49.143Z,1002.16
2017-09-15T02:29:49.112Z,1002.23
2017-09-15T02:30:49.071Z,1002.19
2017-09-15T02:31:49.044Z,1002.20
2017-09-15T02:32:49.000Z,1002.18
2017-09-15T02:33:48.966Z,1002.23
2017-09-15T02:34:48.934Z,1002.19
2017-09-15T02:35:48.894Z,1002.21
2017-09-15T02:36:48.858Z,1002.27
2017-09-15T02:37:48.820Z,1002.30
2017-09-15T02:38:48.780Z,1002.28
2017-09-15T02:39:48.747Z,1002.32
2017-09-15T02:40:48.722Z,1002.33
2017-09-15T02:41:48.677Z,1002.34
2017-09-15T02:42:48.644Z,1002.33
2017-09-15T02:43:48.606Z,1002.37
2017-09-15T02:44:48.571Z,1002.35
2017-09-15T02:45:48.539Z,1002.39
2017-09-15T02:46:48.498Z,1002.39
2017-09-15T02:47:48.462Z,1002.39
2017-09-15T02:48:48.434Z,1002.39
2017-09-15T02:49:48.395Z,1002.37
2017-09-15T02:50:48.365Z,1002.42
2017-09-15T02:51:48.326Z,1002.43
2017-09-15T02:52:48.292Z,1002.43
2017-09-15T02:53:48.250Z,1002.42
2017-09-15T02:54:48.218Z,1002.47
2017-09-15T02:55:48.180Z,1002.53
2017-09-15T02:56:48.147Z,1002.52
2017-09-15T02:57:48.110Z,1002.60
2017-09-15T02:58:48.074Z,1002.59
2017-09-15T02:59:48.038Z,1002.62
2017-09-15T03:00:48.020Z,1002.68
2017-09-15T03:01:47.964Z,1002.69
2017-09-15T03:02:47.930Z,1002.77
2017-09-15T03:03:47.895Z,1002.78
2017-09-15T03:04:47.858Z,1002.80
2017-09-15T03:05:47.829Z,1002.78
2017-09-15T03:06:47.792Z,1002.81
2017-09-15T03:07:47.764Z,1002.85
2017-09-15T03:08:47.720Z,1002.88
2017-09-15T03:09:47.680Z,1002.87
2017-09-15T03:10:47.649Z,1002.86
2017-09-15T03:11:47.618Z,1002.87
2017-09-15T03:12:47.571Z,1002.91
2017-09-15T03:13:47.539Z,1002.86
2017-09-15T03:14:47.507Z,1002.91
2017-09-15T03:15:47.473Z,1002.92
2017-09-15T03:16:47.431Z,1002.92
2017-09-15T03:17:47.393Z,1002.96
2017-09-15T03:18:47.360Z,1002.91
2017-09-15T03:19:47.336Z,1002.89
2017-09-15T03:20:47.291Z,1002.93
2017-09-15T03:21:47.255Z,1002.95
2017-09-15T03:22:47.211Z,1002.92
2017-09-15T03:23:47.184Z,1002.99
2017-09-15T03:24:47.159Z,1003.00
2017-09-15T03:25:47.137Z,1003.03
2017-09-15T03:26:47.077Z,1003.03
2017-09-15T03:27:47.043Z,1003.07
2017-09-15T03:28:47.019Z,1003.13
2017-09-15T03:29:46.997Z,1003.14
2017-09-15T03:30:46.946Z,1003.17
2017-09-15T03:31:46.901Z,1003.16
2017-09-15T03:32:46.943Z,1003.18
2017-09-15T03:33:46.824Z,1003.15
2017-09-15T03:34:46.781Z,1003.19
2017-09-15T03:35:46.749Z,1003.19
2017-09-15T03:36:46.733Z,1003.23
2017-09-15T03:37:46.684Z,1003.25
2017-09-15T03:38:46.686Z,1003.26
2017-09-15T03:39:46.643Z,1003.22
2017-09-15T03:40:46.585Z,1003.21
2017-09-15T03:41:46.557Z,1003.25
2017-09-15T03:42:46.516Z,1003.28
2017-09-15T03:43:46.467Z,1003.29
2017-09-15T03:44:46.438Z,1003.29
2017-09-15T03:45:46.397Z,1003.28
2017-09-15T03:46:46.403Z,1003.28
2017-09-15T03:47:46.339Z,1003.23
2017-09-15T03:48:46.294Z,1003.27
2017-09-15T03:49:46.277Z,1003.25
2017-09-15T03:50:46.222Z,1003.27
2017-09-15T03:51:46.179Z,1003.28
2017-09-15T03:52:46.147Z,1003.28
2017-09-15T03:53:46.119Z,1003.26
2017-09-15T03:54:46.079Z,1003.26
2017-09-15T03:55:46.047Z,1003.22
2017-09-15T03:56:46.002Z,1003.27
2017-09-15T03:57:45.966Z,1003.32
2017-09-15T03:58:45.935Z,1003.26
2017-09-15T03:59:45.898Z,1003.30
2017-09-15T04:00:45.865Z,1003.34
2017-09-15T04:01:45.828Z,1003.33
2017-09-15T04:02:45.790Z,1003.38
2017-09-15T04:03:45.759Z,1003.36
2017-09-15T04:04:45.718Z,1003.37
2017-09-15T04:05:45.687Z,1003.36
2017-09-15T04:06:45.646Z,1003.40
2017-09-15T04:07:45.612Z,1003.38
2017-09-15T04:08:45.581Z,1003.44
2017-09-15T04:09:45.539Z,1003.48
2017-09-15T04:10:45.501Z,1003.56
2017-09-15T04:11:45.469Z,1003.53
2017-09-15T04:12:45.439Z,1003.56
2017-09-15T04:13:45.402Z,1003.57
2017-09-15T04:14:45.359Z,1003.59
2017-09-15T04:15:45.336Z,1003.58
2017-09-15T04:16:45.291Z,1003.62
2017-09-15T04:17:45.250Z,1003.64
2017-09-15T04:18:45.224Z,1003.64
2017-09-15T04:19:45.183Z,1003.66
2017-09-15T04:20:45.155Z,1003.68
2017-09-15T04:21:45.122Z,1003.70
2017-09-15T04:22:45.077Z,1003.71
2017-09-15T04:23:45.055Z,1003.71
2017-09-15T04:24:45.007Z,1003.75
2017-09-15T04:25:44.969Z,1003.78
2017-09-15T04:26:44.932Z,1003.76
2017-09-15T04:27:44.901Z,1003.80
2017-09-15T04:28:44.873Z,1003.77
2017-09-15T04:29:44.831Z,1003.84
2017-09-15T04:30:44.791Z,1003.80
2017-09-15T04:31:44.758Z,1003.86
2017-09-15T04:32:44.726Z,1003.85
2017-09-15T04:33:44.691Z,1003.86
2017-09-15T04:34:44.653Z,1003.90
2017-09-15T04:35:44.614Z,1003.89
2017-09-15T04:36:44.581Z,1003.87
2017-09-15T04:37:44.546Z,1003.94
2017-09-15T04:38:44.509Z,1003.97
2017-09-15T04:39:44.471Z,1003.92
2017-09-15T04:40:44.446Z,1004.01
2017-09-15T04:41:44.403Z,1004.00
2017-09-15T04:42:44.365Z,1004.03
2017-09-15T04:43:44.353Z,1004.04
2017-09-15T04:44:44.295Z,1004.03
2017-09-15T04:45:44.264Z,1004.07
2017-09-15T04:46:44.226Z,1004.08
2017-09-15T04:47:44.188Z,1004.06
2017-09-15T04:48:44.151Z,1004.08
2017-09-15T04:49:44.121Z,1004.11
2017-09-15T04:50:44.093Z,1004.14
2017-09-15T04:51:44.046Z,1004.15
2017-09-15T04:52:44.010Z,1004.14
2017-09-15T04:53:43.976Z,1004.15
2017-09-15T04:54:43.956Z,1004.18
2017-09-15T04:55:43.903Z,1004.21
2017-09-15T04:56:43.884Z,1004.20
2017-09-15T04:57:43.853Z,1004.21
2017-09-15T04:58:43.824Z,1004.14
2017-09-15T04:59:43.771Z,1004.23
2017-09-15T05:00:43.758Z,1004.25
2017-09-15T05:01:43.715Z,1004.26
2017-09-15T05:02:43.670Z,1004.26
2017-09-15T05:03:43.673Z,1004.34
2017-09-15T05:04:43.586Z,1004.34
2017-09-15T05:05:43.583Z,1004.34
2017-09-15T05:06:43.551Z,1004.35
2017-09-15T05:07:43.487Z,1004.41
2017-09-15T05:08:43.460Z,1004.42
2017-09-15T05:09:43.450Z,1004.47
2017-09-15T05:10:43.380Z,1004.45
2017-09-15T05:11:43.337Z,1004.47
2017-09-15T05:12:43.319Z,1004.49
2017-09-15T05:13:43.380Z,1004.52
2017-09-15T05:14:43.236Z,1004.58
2017-09-15T05:15:43.208Z,1004.65
2017-09-15T05:16:43.189Z,1004.60
2017-09-15T05:17:43.198Z,1004.66
2017-09-15T05:18:43.139Z,1004.61
2017-09-15T05:19:43.115Z,1004.65
2017-09-15T05:20:43.015Z,1004.67
2017-09-15T05:21:42.982Z,1004.68
2017-09-15T05:22:42.947Z,1004.66
2017-09-15T05:23:42.913Z,1004.69
2017-09-15T05:24:42.895Z,1004.79
2017-09-15T05:25:42.836Z,1004.75
2017-09-15T05:26:42.824Z,1004.78
2017-09-15T05:27:42.802Z,1004.76
2017-09-15T05:28:42.774Z,1004.80
2017-09-15T05:29:42.716Z,1004.86
2017-09-15T05:30:42.668Z,1004.91
2017-09-15T05:31:42.637Z,1004.89
2017-09-15T05:32:42.697Z,1004.91
2017-09-15T05:33:42.568Z,1004.95
2017-09-15T05:34:42.697Z,1004.95
2017-09-15T05:35:42.504Z,1004.94
2017-09-15T05:36:42.462Z,1004.93
2017-09-15T05:37:42.428Z,1004.93
2017-09-15T05:38:42.385Z,1004.96
2017-09-15T05:39:42.353Z,1004.97
2017-09-15T05:40:42.320Z,1004.99
2017-09-15T05:41:42.279Z,1005.00
2017-09-15T05:42:42.286Z,1005.03
2017-09-15T05:43:42.234Z,1005.04
2017-09-15T05:44:42.919Z,1005.04
2017-09-15T05:45:42.138Z,1005.02
2017-09-15T05:46:42.098Z,1005.10
2017-09-15T05:47:42.063Z,1005.09
2017-09-15T05:48:42.037Z,1005.08
2017-09-15T05:49:41.992Z,1005.15
2017-09-15T05:50:41.962Z,1005.14
2017-09-15T05:51:41.926Z,1005.15
2017-09-15T05:52:41.888Z,1005.11
2017-09-15T05:53:41.853Z,1005.20
2017-09-15T05:54:41.816Z,1005.24
2017-09-15T05:55:41.784Z,1005.22
2017-09-15T05:56:41.757Z,1005.24
2017-09-15T05:57:41.710Z,1005.34
2017-09-15T05:58:41.680Z,1005.37
2017-09-15T05:59:41.649Z,1005.31
2017-09-15T06:00:41.611Z,1005.39
2017-09-15T06:01:41.577Z,1005.38
2017-09-15T06:02:41.539Z,1005.44
2017-09-15T06:03:41.515Z,1005.42
2017-09-15T06:04:41.471Z,1005.44
2017-09-15T06:05:41.436Z,1005.50
2017-09-15T06:06:41.406Z,1005.53
2017-09-15T06:07:41.369Z,1005.52
2017-09-15T06:08:41.331Z,1005.52
2017-09-15T06:09:41.333Z,1005.52
2017-09-15T06:10:41.264Z,1005.53
2017-09-15T06:11:41.230Z,1005.56
2017-09-15T06:12:41.198Z,1005.56
2017-09-15T06:13:41.158Z,1005.61
2017-09-15T06:14:41.128Z,1005.64
2017-09-15T06:15:41.433Z,1005.59
2017-09-15T06:16:41.059Z,1005.72
2017-09-15T06:17:41.027Z,1005.71
2017-09-15T06:18:40.989Z,1005.76
2017-09-15T06:19:40.953Z,1005.76
2017-09-15T06:20:40.916Z,1005.79
2017-09-15T06:21:40.883Z,1005.79
2017-09-15T06:22:40.848Z,1005.81
2017-09-15T06:23:40.816Z,1005.80
2017-09-15T06:24:40.781Z,1005.79
2017-09-15T06:25:40.747Z,1005.87
2017-09-15T06:26:40.710Z,1005.89
2017-09-15T06:27:40.677Z,1005.95
2017-09-15T06:28:40.644Z,1005.92
2017-09-15T06:29:40.607Z,1005.92
2017-09-15T06:30:40.593Z,1005.92
2017-09-15T06:31:40.557Z,1005.98
2017-09-15T06:32:40.510Z,1005.97
2017-09-15T06:33:40.489Z,1005.98
2017-09-15T06:34:40.436Z,1006.02
2017-09-15T06:35:40.407Z,1006.00
2017-09-15T06:36:40.376Z,1006.06
2017-09-15T06:37:40.336Z,1006.10
2017-09-15T06:38:40.305Z,1006.10
2017-09-15T06:39:40.269Z,1006.10
2017-09-15T06:40:40.242Z,1006.12
2017-09-15T06:41:40.211Z,1006.12
2017-09-15T06:42:40.168Z,1006.15
2017-09-15T06:43:40.139Z,1006.14
2017-09-15T06:44:40.105Z,1006.19
2017-09-15T06:45:40.094Z,1006.25
2017-09-15T06:46:40.035Z,1006.25
2017-09-15T06:47:39.999Z,1006.27
2017-09-15T06:48:39.966Z,1006.31
2017-09-15T06:49:39.931Z,1006.29
2017-09-15T06:50:39.902Z,1006.25
2017-09-15T06:51:39.867Z,1006.26
2017-09-15T06:52:39.835Z,1006.27
2017-09-15T06:53:39.800Z,1006.24
2017-09-15T06:54:39.766Z,1006.29
2017-09-15T06:55:39.734Z,1006.30
2017-09-15T06:56:39.710Z,1006.29
2017-09-15T06:57:39.665Z,1006.28
2017-09-15T06:58:39.636Z,1006.24
2017-09-15T06:59:39.608Z,1006.32
2017-09-15T07:00:39.571Z,1006.40
2017-09-15T07:01:39.536Z,1006.34
2017-09-15T07:02:39.502Z,1006.38
2017-09-15T07:03:39.477Z,1006.34
2017-09-15T07:04:39.437Z,1006.31
2017-09-15T07:05:39.407Z,1006.42
2017-09-15T07:06:39.378Z,1006.35
2017-09-15T07:07:39.336Z,1006.45
2017-09-15T07:08:39.306Z,1006.41
2017-09-15T07:09:39.275Z,1006.52
2017-09-15T07:10:39.238Z,1006.50
2017-09-15T07:11:39.210Z,1006.54
2017-09-15T07:12:39.176Z,1006.40
2017-09-15T07:13:39.145Z,1006.49
2017-09-15T07:14:39.114Z,1006.48
2017-09-15T07:15:39.082Z,1006.55
2017-09-15T07:16:39.050Z,1006.50
2017-09-15T07:17:39.022Z,1006.53
2017-09-15T07:18:38.995Z,1006.48
2017-09-15T07:19:38.944Z,1006.55
2017-09-15T07:20:38.909Z,1006.63
2017-09-15T07:21:38.883Z,1006.61
2017-09-15T07:22:38.849Z,1006.61
2017-09-15T07:23:38.823Z,1006.62
2017-09-15T07:24:38.777Z,1006.74
2017-09-15T07:25:38.760Z,1006.72
2017-09-15T07:26:38.713Z,1006.71
2017-09-15T07:27:38.682Z,1006.77
2017-09-15T07:28:38.655Z,1006.77
2017-09-15T07:29:38.617Z,1006.75
2017-09-15T07:30:38.583Z,1006.86
2017-09-15T07:31:38.548Z,1006.87
2017-09-15T07:32:38.526Z,1006.89
2017-09-15T07:33:38.512Z,1006.91
2017-09-15T07:34:38.465Z,1006.88
2017-09-15T07:35:38.428Z,1006.81
2017-09-15T07:36:38.385Z,1006.92
2017-09-15T07:37:38.378Z,1006.98
2017-09-15T07:38:38.343Z,1007.04
2017-09-15T07:39:38.291Z,1007.08
2017-09-15T07:40:38.256Z,1007.02
2017-09-15T07:41:38.255Z,1007.16
2017-09-15T07:42:38.203Z,1007.10
2017-09-15T07:43:38.166Z,1007.15
2017-09-15T07:44:38.134Z,1007.13
2017-09-15T07:45:38.105Z,1007.15
2017-09-15T07:46:38.058Z,1007.11
2017-09-15T07:47:38.031Z,1007.13
2017-09-15T07:48:38.010Z,1007.15
2017-09-15T07:49:37.980Z,1007.10
2017-09-15T07:50:37.925Z,1007.10
2017-09-15T07:51:37.898Z,1007.19
2017-09-15T07:52:37.915Z,1007.17
2017-09-15T07:53:37.843Z,1007.27
2017-09-15T07:54:37.810Z,1007.21
2017-09-15T07:55:37.769Z,1007.28
2017-09-15T07:56:37.730Z,1007.21
2017-09-15T07:57:37.700Z,1007.31
2017-09-15T07:58:37.680Z,1007.34
2017-09-15T07:59:37.644Z,1007.33
2017-09-15T08:00:37.644Z,1007.29
2017-09-15T08:01:37.584Z,1007.35
2017-09-15T08:02:37.545Z,1007.28
2017-09-15T08:03:37.520Z,1007.26
2017-09-15T08:04:37.489Z,1007.25
2017-09-15T08:05:37.452Z,1007.38
2017-09-15T08:06:37.423Z,1007.33
2017-09-15T08:07:37.406Z,1007.42
2017-09-15T08:08:37.354Z,1007.45
2017-09-15T08:09:37.312Z,1007.33
2017-09-15T08:10:37.286Z,1007.35
2017-09-15T08:11:37.267Z,1007.39
2017-09-15T08:12:37.221Z,1007.36
2017-09-15T08:13:37.186Z,1007.40
2017-09-15T08:14:37.159Z,1007.33
2017-09-15T08:15:37.120Z,1007.43
2017-09-15T08:16:37.095Z,1007.41
2017-09-15T08:17:37.054Z,1007.48
2017-09-15T08:18:37.031Z,1007.39
2017-09-15T08:19:36.982Z,1007.46
2017-09-15T08:20:36.982Z,1007.43
2017-09-15T08:21:36.922Z,1007.48
2017-09-15T08:22:36.887Z,1007.53
2017-09-15T08:23:36.857Z,1007.52
2017-09-15T08:24:36.821Z,1007.39
2017-09-15T08:25:36.804Z,1007.51
2017-09-15T08:26:36.765Z,1007.37
2017-09-15T08:27:36.725Z,1007.51
2017-09-15T08:28:36.692Z,1007.42
2017-09-15T08:29:36.663Z,1007.55
2017-09-15T08:30:36.626Z,1007.58
2017-09-15T08:31:36.596Z,1007.49
2017-09-15T08:32:36.561Z,1007.53
2017-09-15T08:33:36.529Z,1007.59
2017-09-15T08:34:36.497Z,1007.56
2017-09-15T08:35:36.474Z,1007.64
2017-09-15T08:36:36.433Z,1007.75
2017-09-15T08:37:36.402Z,1007.66
2017-09-15T08:38:36.380Z,1007.58
2017-09-15T08:39:36.341Z,1007.63
2017-09-15T08:40:36.304Z,1007.49
2017-09-15T08:41:36.272Z,1007.62
2017-09-15T08:42:36.243Z,1007.72
2017-09-15T08:43:36.212Z,1007.53
2017-09-15T08:44:36.175Z,1007.50
2017-09-15T08:45:36.139Z,1007.52
2017-09-15T08:46:36.110Z,1007.57
2017-09-15T08:47:36.086Z,1007.64
2017-09-15T08:48:36.051Z,1007.66
2017-09-15T08:49:36.010Z,1007.77
2017-09-15T08:50:35.983Z,1007.78
2017-09-15T08:51:35.948Z,1007.64
2017-09-15T08:52:35.920Z,1007.63
2017-09-15T08:53:35.891Z,1007.64
2017-09-15T08:54:35.858Z,1007.67
2017-09-15T08:55:35.826Z,1007.86
2017-09-15T08:56:35.788Z,1007.74
2017-09-15T08:57:35.756Z,1007.67
2017-09-15T08:58:35.727Z,1007.91
2017-09-15T08:59:35.688Z,1007.72
2017-09-15T09:00:35.663Z,1007.88
2017-09-15T09:01:35.627Z,1007.86
2017-09-15T09:02:35.595Z,1007.72
2017-09-15T09:03:35.574Z,1007.68
2017-09-15T09:04:35.533Z,1007.86
2017-09-15T09:05:35.499Z,1007.81
2017-09-15T09:06:35.476Z,1007.63
2017-09-15T09:07:35.443Z,1007.61
2017-09-15T09:08:35.413Z,1007.62
2017-09-15T09:09:35.373Z,1007.72
2017-09-15T09:10:35.346Z,1007.77
2017-09-15T09:11:35.309Z,1007.83
2017-09-15T09:12:35.281Z,1007.79
2017-09-15T09:13:35.267Z,1007.73
2017-09-15T09:14:35.221Z,1007.80
2017-09-15T09:15:35.194Z,1007.91
2017-09-15T09:16:35.154Z,1007.86
2017-09-15T09:17:35.135Z,1007.71
2017-09-15T09:18:35.092Z,1007.83
2017-09-15T09:19:35.068Z,1007.90
2017-09-15T09:20:35.027Z,1007.89
2017-09-15T09:21:35.013Z,1007.97
2017-09-15T09:22:34.962Z,1007.98
2017-09-15T09:23:34.934Z,1007.90
2017-09-15T09:24:34.903Z,1007.95
2017-09-15T09:25:34.877Z,1008.01
2017-09-15T09:26:34.839Z,1007.89
2017-09-15T09:27:34.813Z,1007.95
2017-09-15T09:28:34.776Z,1007.94
2017-09-15T09:29:34.746Z,1007.96
2017-09-15T09:30:34.720Z,1007.95
2017-09-15T09:31:34.687Z,1007.90
2017-09-15T09:32:34.661Z,1007.89
2017-09-15T09:33:34.626Z,1007.83
2017-09-15T09:34:34.591Z,1007.83
2017-09-15T09:35:34.559Z,1007.84
2017-09-15T09:36:34.532Z,1007.86
2017-09-15T09:37:34.503Z,1007.85
2017-09-15T09:38:34.472Z,1007.84
2017-09-15T09:39:34.436Z,1007.88
2017-09-15T09:40:34.409Z,1007.91
2017-09-15T09:41:34.375Z,1007.88
2017-09-15T09:42:34.346Z,1007.94
2017-09-15T09:43:34.313Z,1007.75
2017-09-15T09:44:34.281Z,1007.76
2017-09-15T09:45:34.250Z,1007.78
2017-09-15T09:46:34.219Z,1007.77
2017-09-15T09:47:34.197Z,1007.79
2017-09-15T09:48:34.157Z,1007.91
2017-09-15T09:49:34.129Z,1007.91
2017-09-15T09:50:34.101Z,1007.88
2017-09-15T09:51:34.066Z,1007.85
2017-09-15T09:52:34.047Z,1007.84
2017-09-15T09:53:34.001Z,1007.83
2017-09-15T09:54:33.973Z,1007.87
2017-09-15T09:55:33.938Z,1007.87
2017-09-15T09:56:33.910Z,1007.89
2017-09-15T09:57:33.874Z,1007.82
2017-09-15T09:58:33.842Z,1007.86
2017-09-15T09:59:33.829Z,1007.86
2017-09-15T10:00:33.795Z,1007.90
2017-09-15T10:01:33.746Z,1007.85
2017-09-15T10:02:33.719Z,1007.64
2017-09-15T10:03:33.685Z,1007.75
2017-09-15T10:04:33.662Z,1007.83
2017-09-15T10:05:33.624Z,1007.74
2017-09-15T10:06:33.603Z,1007.75
2017-09-15T10:07:33.560Z,1007.71
2017-09-15T10:08:33.541Z,1007.74
2017-09-15T10:09:33.497Z,1007.69
2017-09-15T10:10:33.482Z,1007.74
2017-09-15T10:11:33.435Z,1007.71
2017-09-15T10:12:33.400Z,1007.81
2017-09-15T10:13:33.380Z,1007.78
2017-09-15T10:14:33.359Z,1007.83
2017-09-15T10:15:33.321Z,1007.78
2017-09-15T10:16:33.295Z,1007.85
2017-09-15T10:17:33.245Z,1007.89
2017-09-15T10:18:33.225Z,1007.80
2017-09-15T10:19:33.182Z,1007.86
2017-09-15T10:20:33.163Z,1007.94
2017-09-15T10:21:33.131Z,1008.00
2017-09-15T10:22:33.095Z,1007.87
2017-09-15T10:23:33.072Z,1007.71
2017-09-15T10:24:33.059Z,1007.84
2017-09-15T10:25:33.014Z,1007.71
2017-09-15T10:26:32.969Z,1007.72
2017-09-15T10:27:32.936Z,1007.71
2017-09-15T10:28:32.898Z,1007.73
2017-09-15T10:29:32.910Z,1007.74
2017-09-15T10:30:32.841Z,1007.80
2017-09-15T10:31:32.816Z,1007.78
2017-09-15T10:32:32.777Z,1007.72
2017-09-15T10:33:32.744Z,1007.75
2017-09-15T10:34:32.713Z,1007.93
2017-09-15T10:35:32.681Z,1007.89
2017-09-15T10:36:32.649Z,1007.90
2017-09-15T10:37:32.638Z,1007.93
2017-09-15T10:38:32.588Z,1007.96
2017-09-15T10:39:32.563Z,1007.96
2017-09-15T10:40:32.525Z,1007.97
2017-09-15T10:41:32.509Z,1008.00
2017-09-15T10:42:32.478Z,1007.99
2017-09-15T10:43:32.461Z,1007.89
2017-09-15T10:44:32.396Z,1007.91
2017-09-15T10:45:32.377Z,1007.82
2017-09-15T10:46:32.344Z,1007.85
2017-09-15T10:47:32.321Z,1007.80
2017-09-15T10:48:32.272Z,1007.75
2017-09-15T10:49:32.253Z,1007.74
2017-09-15T10:50:32.221Z,1007.78
2017-09-15T10:51:32.196Z,1007.71
2017-09-15T10:52:32.148Z,1007.83
2017-09-15T10:53:32.150Z,1007.79
2017-09-15T10:54:32.087Z,1007.77
2017-09-15T10:55:32.055Z,1007.78
2017-09-15T10:56:32.026Z,1007.78
2017-09-15T10:57:31.995Z,1007.78
2017-09-15T10:58:31.958Z,1007.84
2017-09-15T10:59:31.931Z,1007.86
2017-09-15T11:00:31.898Z,1007.86
2017-09-15T11:01:31.876Z,1007.84
2017-09-15T11:02:31.842Z,1007.83
2017-09-15T11:03:31.803Z,1007.84
2017-09-15T11:04:31.773Z,1007.80
2017-09-15T11:05:31.742Z,1007.78
2017-09-15T11:06:31.711Z,1007.85
2017-09-15T11:07:31.683Z,1007.80
2017-09-15T11:08:31.653Z,1007.79
2017-09-15T11:09:31.618Z,1007.75
2017-09-15T11:10:31.591Z,1007.74
2017-09-15T11:11:31.557Z,1007.76
2017-09-15T11:12:31.524Z,1007.88
2017-09-15T11:13:31.493Z,1007.87
2017-09-15T11:14:31.463Z,1007.95
2017-09-15T11:15:31.429Z,1007.89
2017-09-15T11:16:31.402Z,1007.93
2017-09-15T11:17:31.377Z,1008.01
2017-09-15T11:18:31.340Z,1008.01
2017-09-15T11:19:31.309Z,1007.92
2017-09-15T11:20:31.278Z,1007.84
2017-09-15T11:21:31.246Z,1007.82
2017-09-15T11:22:31.215Z,1007.89
2017-09-15T11:23:31.184Z,1007.92
2017-09-15T11:24:31.160Z,1007.87
2017-09-15T11:25:31.122Z,1007.86
2017-09-15T11:26:31.090Z,1007.88
2017-09-15T11:27:31.060Z,1007.85
2017-09-15T11:28:31.033Z,1007.89
2017-09-15T11:29:31.001Z,1007.89
2017-09-15T11:30:30.979Z,1007.89
2017-09-15T11:31:30.947Z,1007.91
2017-09-15T11:32:30.907Z,1008.09
2017-09-15T11:33:30.878Z,1007.96
2017-09-15T11:34:30.862Z,1007.89
2017-09-15T11:35:30.817Z,1007.93
2017-09-15T11:36:30.786Z,1007.89
2017-09-15T11:37:30.756Z,1007.92
2017-09-15T11:38:30.724Z,1007.89
2017-09-15T11:39:30.700Z,1007.89
2017-09-15T11:40:30.665Z,1008.09
2017-09-15T11:41:30.633Z,1008.04
2017-09-15T11:42:30.601Z,1008.04
2017-09-15T11:43:30.572Z,1007.97
2017-09-15T11:44:30.553Z,1007.91
2017-09-15T11:45:30.522Z,1007.74
2017-09-15T11:46:30.481Z,1007.84
2017-09-15T11:47:30.457Z,1007.92
2017-09-15T11:48:30.422Z,1007.83
2017-09-15T11:49:30.394Z,1007.89
2017-09-15T11:50:30.355Z,1007.88
2017-09-15T11:51:30.330Z,1007.90
2017-09-15T11:52:30.299Z,1007.70
2017-09-15T11:53:30.279Z,1007.86
2017-09-15T11:54:30.244Z,1007.76
2017-09-15T11:55:30.212Z,1007.78
2017-09-15T11:56:30.179Z,1007.80
2017-09-15T11:57:30.150Z,1007.78
2017-09-15T11:58:30.119Z,1007.74
2017-09-15T11:59:30.086Z,1007.70
2017-09-15T12:00:30.063Z,1007.70
2017-09-15T12:01:30.026Z,1007.73
2017-09-15T12:02:29.997Z,1007.71
2017-09-15T12:03:29.965Z,1007.76
2017-09-15T12:04:29.942Z,1007.74
2017-09-15T12:05:29.907Z,1007.74